Time;durP1;ratioP1;P1;durP2;ratioP2;P2;SDS_P1;SDS_P2;PMS_P1;PMS_P2;Temp;Humidity;BMP_temperature;BMP_pressure;BME280_temperature;BME280_humidity;BME280_pressure;Samples;Min_cycle;Max_cycle;Signal;HPM_P1;HPM_P2
2023/10/23 00:00:43;;;;;;;6.72;4.20;;;;;;;18.80;58.27;101367.34;5022920;28;20132;-40
2023/10/23 00:03:10;;;;;;;6.65;4.28;;;;;;;18.78;58.82;101367.50;5017637;28;20100;-40
2023/10/23 00:05:36;;;;;;;6.97;4.35;;;;;;;18.77;58.39;101364.94;5025625;28;20111;-40
2023/10/23 00:08:03;;;;;;;6.43;4.07;;;;;;;18.76;58.68;101366.78;5021105;28;20080;-40
2023/10/23 00:10:30;;;;;;;6.55;4.35;;;;;;;18.76;57.99;101365.94;5021501;28;20060;-40
2023/10/23 00:12:57;;;;;;;6.97;4.28;;;;;;;18.74;58.19;101364.25;5019730;28;20137;-40
2023/10/23 00:15:23;;;;;;;7.40;4.53;;;;;;;18.74;58.22;101369.63;5020480;28;20080;-40
2023/10/23 00:17:50;;;;;;;6.30;3.92;;;;;;;18.73;58.41;101377.81;5020655;28;20091;-40
2023/10/23 00:20:16;;;;;;;5.47;3.85;;;;;;;18.72;58.54;101370.75;5020332;28;20100;-40
2023/10/23 00:22:43;;;;;;;5.47;3.80;;;;;;;18.72;58.63;101376.13;5018887;28;20379;-40
2023/10/23 00:25:10;;;;;;;6.13;3.97;;;;;;;18.70;58.26;101370.91;5021454;28;20251;-39
2023/10/23 00:27:36;;;;;;;7.05;4.57;;;;;;;18.70;58.16;101372.75;5027139;28;20052;-39
2023/10/23 00:30:03;;;;;;;6.85;3.78;;;;;;;18.68;58.40;101372.84;5022631;28;20136;-39
2023/10/23 00:32:30;;;;;;;5.35;4.00;;;;;;;18.67;58.23;101371.16;5021408;28;20405;-39
2023/10/23 00:34:56;;;;;;;5.88;3.80;;;;;;;18.67;58.58;101367.63;5023503;28;20061;-39
2023/10/23 00:37:23;;;;;;;5.70;3.67;;;;;;;18.66;58.22;101379.38;5021383;28;20046;-39
2023/10/23 00:39:50;;;;;;;5.30;3.45;;;;;;;18.65;58.49;101370.47;5021016;28;20144;-39
2023/10/23 00:42:16;;;;;;;5.35;3.70;;;;;;;18.64;58.59;101376.81;5024133;28;20092;-39
2023/10/23 00:44:43;;;;;;;5.70;3.70;;;;;;;18.62;58.56;101384.19;5020753;28;20045;-39
2023/10/23 00:47:10;;;;;;;6.38;3.63;;;;;;;18.62;58.75;101386.03;5022851;28;20096;-40
2023/10/23 00:49:37;;;;;;;8.27;4.53;;;;;;;18.61;58.25;101385.16;5019099;28;20053;-39
2023/10/23 00:52:05;;;;;;;5.47;3.63;;;;;;;18.59;58.33;101380.94;5018258;28;20045;-39
2023/10/23 00:54:33;;;;;;;5.80;3.90;;;;;;;18.59;59.00;101375.56;5020963;28;20053;-39
2023/10/23 00:56:59;;;;;;;4.90;3.17;;;;;;;18.57;58.27;101386.44;5021251;28;20052;-39
2023/10/23 00:59:26;;;;;;;6.50;4.30;;;;;;;18.57;58.70;101388.25;5024777;28;20464;-38
2023/10/23 01:01:53;;;;;;;5.30;3.60;;;;;;;18.56;58.14;101375.84;5028687;28;20468;-39
2023/10/23 01:04:20;;;;;;;5.22;3.47;;;;;;;18.56;58.69;101381.22;5024627;28;20442;-39
2023/10/23 01:06:47;;;;;;;5.82;3.35;;;;;;;18.53;58.37;101371.59;5019996;28;20433;-39
2023/10/23 01:09:14;;;;;;;5.47;3.60;;;;;;;18.53;58.74;101374.28;5019303;28;20451;-39
2023/10/23 01:11:40;;;;;;;5.47;3.17;;;;;;;18.52;58.61;101377.13;5020095;28;20045;-39
2023/10/23 01:14:07;;;;;;;5.20;3.47;;;;;;;18.52;58.76;101380.66;5023369;28;20049;-39
2023/10/23 01:16:33;;;;;;;5.20;3.10;;;;;;;18.51;58.30;101387.00;5024269;28;20133;-39
2023/10/23 01:19:00;;;;;;;7.18;4.00;;;;;;;18.49;58.55;101386.28;5018835;28;20084;-39
2023/10/23 01:21:27;;;;;;;4.97;3.17;;;;;;;18.49;58.62;101394.34;5020514;28;20441;-39
2023/10/23 01:23:56;;;;;;;4.65;3.33;;;;;;;18.48;58.65;101398.03;5018428;28;20045;-39
2023/10/23 01:26:23;;;;;;;4.40;3.20;;;;;;;18.47;58.41;101390.97;5021603;28;20145;-39
2023/10/23 01:28:49;;;;;;;4.45;3.22;;;;;;;18.46;58.23;101395.50;5019819;28;20103;-39
2023/10/23 01:31:16;;;;;;;6.45;4.10;;;;;;;18.46;58.80;101402.72;5021207;28;20160;-39
2023/10/23 01:33:43;;;;;;;5.30;3.33;;;;;;;18.43;58.43;101403.00;5020816;28;20057;-39
2023/10/23 01:36:10;;;;;;;5.05;3.20;;;;;;;18.43;58.36;101411.03;5026477;28;20052;-39
2023/10/23 01:38:36;;;;;;;6.78;3.50;;;;;;;18.43;58.53;101413.72;5022549;28;20046;-39
2023/10/23 01:41:03;;;;;;;4.97;3.33;;;;;;;18.42;58.24;101407.50;5018399;28;20496;-39
2023/10/23 01:43:29;;;;;;;4.93;2.85;;;;;;;18.42;58.70;101401.31;5022055;28;20053;-39
2023/10/23 01:45:58;;;;;;;5.30;3.15;;;;;;;18.43;58.48;101405.69;5018052;28;20050;-40
2023/10/23 01:48:24;;;;;;;3.88;2.63;;;;;;;18.41;58.51;101399.59;5022752;28;20037;-39
2023/10/23 01:50:51;;;;;;;5.38;3.20;;;;;;;18.39;58.77;101402.44;5020959;28;20127;-39
2023/10/23 01:53:18;;;;;;;4.45;2.90;;;;;;;18.39;58.56;101396.22;5020971;28;20050;-39
2023/10/23 01:55:44;;;;;;;4.82;3.30;;;;;;;18.38;58.58;101402.59;5020560;28;20127;-39
2023/10/23 01:58:11;;;;;;;5.15;3.33;;;;;;;18.38;58.49;101395.38;5022522;28;20385;-39
2023/10/23 02:00:38;;;;;;;5.03;3.53;;;;;;;18.36;58.76;101400.00;5020516;28;20311;-39
2023/10/23 02:03:04;;;;;;;4.70;2.70;;;;;;;18.36;58.91;101407.22;5016568;28;20052;-39
2023/10/23 02:05:31;;;;;;;4.90;3.10;;;;;;;18.35;58.56;101398.34;5018290;28;20048;-39
2023/10/23 02:07:58;;;;;;;4.43;3.40;;;;;;;18.35;58.51;101394.81;5021025;28;20082;-39
2023/10/23 02:10:25;;;;;;;5.10;3.13;;;;;;;18.34;58.53;101393.13;5022978;28;20132;-39
2023/10/23 02:12:51;;;;;;;5.28;3.17;;;;;;;18.33;58.62;101394.09;5023874;28;20148;-39
2023/10/23 02:15:18;;;;;;;4.35;3.00;;;;;;;18.32;58.74;101395.94;5019184;28;20060;-39
2023/10/23 02:17:45;;;;;;;4.90;2.95;;;;;;;18.32;58.80;101403.13;5019675;28;20353;-39
2023/10/23 02:20:11;;;;;;;3.90;2.67;;;;;;;18.31;58.43;101404.13;5015331;28;20084;-39
2023/10/23 02:22:38;;;;;;;3.78;2.60;;;;;;;18.32;58.60;101413.88;5021774;28;20746;-39
2023/10/23 02:25:05;;;;;;;4.60;2.72;;;;;;;18.30;58.94;101416.69;5022222;28;20131;-39
2023/10/23 02:27:32;;;;;;;5.22;2.95;;;;;;;18.29;58.85;101415.03;5021645;28;20485;-39
2023/10/23 02:29:58;;;;;;;4.80;2.78;;;;;;;18.29;58.46;101415.03;5019542;28;20452;-39
2023/10/23 02:32:25;;;;;;;3.97;2.90;;;;;;;18.29;58.68;101416.81;5020218;28;20053;-39
2023/10/23 02:34:52;;;;;;;4.45;2.88;;;;;;;18.28;58.33;101420.50;5015393;28;20102;-39
2023/10/23 02:37:18;;;;;;;4.75;3.28;;;;;;;18.27;58.85;101424.19;5022365;28;20045;-39
2023/10/23 02:39:45;;;;;;;4.03;2.65;;;;;;;18.26;58.63;101428.72;5021183;28;20089;-39
2023/10/23 02:42:12;;;;;;;3.95;2.50;;;;;;;18.25;58.88;101430.53;5026428;28;20041;-39
2023/10/23 02:44:38;;;;;;;4.57;3.13;;;;;;;18.25;58.92;101416.25;5020519;28;20074;-39
2023/10/23 02:47:05;;;;;;;3.88;2.80;;;;;;;18.23;58.96;101420.94;5019823;28;20049;-39
2023/10/23 02:49:31;;;;;;;4.35;2.90;;;;;;;18.23;58.61;101421.78;5018644;28;20038;-39
2023/10/23 02:51:58;;;;;;;3.53;2.53;;;;;;;18.21;58.94;101421.09;5018046;28;20133;-39
2023/10/23 02:54:24;;;;;;;3.95;2.50;;;;;;;18.22;59.01;101419.25;5021281;28;20068;-39
2023/10/23 02:56:51;;;;;;;3.47;2.60;;;;;;;18.22;58.61;101421.94;5025953;28;20651;-39
2023/10/23 02:59:18;;;;;;;3.83;2.80;;;;;;;18.21;58.47;101425.56;5024809;28;20042;-39
2023/10/23 03:01:45;;;;;;;3.67;2.47;;;;;;;18.19;58.55;101422.19;5025171;28;20099;-39
2023/10/23 03:04:12;;;;;;;3.78;2.28;;;;;;;18.20;58.69;101415.84;5026136;28;20160;-39
2023/10/23 03:06:39;;;;;;;3.95;2.53;;;;;;;18.18;58.74;101426.72;5026190;28;20057;-38
2023/10/23 03:09:05;;;;;;;3.60;2.40;;;;;;;18.18;58.67;101431.25;5020208;28;20050;-39
2023/10/23 03:11:33;;;;;;;3.95;2.90;;;;;;;18.17;58.81;101424.16;5023742;28;20072;-39
2023/10/23 03:13:59;;;;;;;3.95;2.50;;;;;;;18.17;58.87;101425.03;5028200;28;20392;-39
2023/10/23 03:16:26;;;;;;;3.60;2.60;;;;;;;18.16;58.49;101422.47;5029428;28;20041;-39
2023/10/23 03:18:53;;;;;;;3.72;2.33;;;;;;;18.16;58.87;101431.38;5025042;28;20044;-39
2023/10/23 03:21:20;;;;;;;3.17;1.92;;;;;;;18.15;58.75;101426.16;5023368;28;20049;-38
2023/10/23 03:23:46;;;;;;;3.13;2.20;;;;;;;18.15;58.76;101431.53;5023449;28;20053;-39
2023/10/23 03:26:14;;;;;;;3.42;2.15;;;;;;;18.13;58.85;101426.31;5022985;28;20460;-39
2023/10/23 03:28:40;;;;;;;3.28;2.40;;;;;;;18.13;58.47;101429.00;5025516;28;20042;-39
2023/10/23 03:31:07;;;;;;;3.38;2.35;;;;;;;18.13;58.67;101434.34;5026402;28;20115;-39
2023/10/23 03:33:34;;;;;;;3.45;2.30;;;;;;;18.12;58.78;101431.78;5027308;28;20124;-39
2023/10/23 03:36:00;;;;;;;4.65;2.40;;;;;;;18.11;58.74;101433.63;5024457;28;20057;-39
2023/10/23 03:38:27;;;;;;;3.20;2.13;;;;;;;18.10;58.76;101437.31;5024599;28;20477;-39
2023/10/23 03:40:55;;;;;;;3.83;2.75;;;;;;;18.10;58.97;101433.78;5019026;28;20046;-39
2023/10/23 03:43:22;;;;;;;3.22;2.42;;;;;;;18.10;58.71;101433.78;5026438;28;20077;-39
2023/10/23 03:45:48;;;;;;;3.20;2.28;;;;;;;18.08;58.80;101441.09;5028487;28;20116;-39
2023/10/23 03:48:15;;;;;;;2.67;2.05;;;;;;;18.09;58.60;101442.78;5027589;28;20049;-39
2023/10/23 03:50:42;;;;;;;2.70;2.13;;;;;;;18.08;58.59;101455.38;5022608;28;20081;-40
2023/10/23 03:53:09;;;;;;;3.97;2.13;;;;;;;18.07;58.78;101451.00;5024179;28;20050;-39
2023/10/23 03:55:37;;;;;;;3.10;2.08;;;;;;;18.06;58.89;101452.00;5021059;28;20046;-39
2023/10/23 03:58:03;;;;;;;3.65;1.98;;;;;;;18.06;58.94;101457.34;5024249;28;20042;-39
2023/10/23 04:00:30;;;;;;;3.47;2.10;;;;;;;18.06;58.79;101456.50;5018721;28;20081;-39
2023/10/23 04:02:57;;;;;;;2.65;2.00;;;;;;;18.05;58.50;101460.16;5021014;28;20060;-39
2023/10/23 04:05:24;;;;;;;3.67;2.22;;;;;;;18.04;58.83;101462.00;5021991;28;20052;-39
2023/10/23 04:07:50;;;;;;;4.45;2.17;;;;;;;18.04;58.70;101458.47;5027088;28;20096;-39
2023/10/23 04:10:17;;;;;;;2.30;1.88;;;;;;;18.02;59.00;101455.94;5026868;28;20059;-39
2023/10/23 04:12:44;;;;;;;3.08;2.17;;;;;;;18.03;58.77;101451.41;5023232;28;20046;-39
2023/10/23 04:15:10;;;;;;;3.28;2.40;;;;;;;18.02;58.67;101452.41;5016716;28;20430;-39
2023/10/23 04:17:37;;;;;;;2.65;1.88;;;;;;;18.01;58.85;101448.88;5017704;28;20119;-39
2023/10/23 04:20:04;;;;;;;2.40;1.75;;;;;;;18.02;58.79;101441.69;5022395;28;20425;-39
2023/10/23 04:22:31;;;;;;;3.58;2.50;;;;;;;18.02;58.82;101436.31;5027787;28;20084;-39
2023/10/23 04:24:58;;;;;;;3.92;2.13;;;;;;;18.02;58.58;101439.84;5024756;28;20046;-39
2023/10/23 04:27:24;;;;;;;3.15;2.40;;;;;;;18.02;58.87;101439.84;5022335;28;20129;-39
2023/10/23 04:29:51;;;;;;;3.15;2.22;;;;;;;18.03;58.93;101433.47;5021507;28;20488;-39
2023/10/23 04:32:18;;;;;;;3.00;2.10;;;;;;;18.03;58.92;101435.31;5023880;28;20049;-39
2023/10/23 04:34:44;;;;;;;3.85;2.35;;;;;;;18.04;58.92;101434.31;5018062;28;20129;-39
2023/10/23 04:37:11;;;;;;;3.88;1.95;;;;;;;18.03;58.63;101433.47;5023768;28;20422;-39
2023/10/23 04:39:37;;;;;;;3.55;2.42;;;;;;;18.04;58.78;101428.97;5021415;28;20374;-39
2023/10/23 04:42:05;;;;;;;4.72;2.30;;;;;;;18.04;58.94;101429.81;5029330;28;20133;-39
2023/10/23 04:44:31;;;;;;;2.85;1.90;;;;;;;18.04;58.75;101434.31;5026836;28;20129;-39
2023/10/23 04:46:58;;;;;;;3.15;2.08;;;;;;;18.05;58.79;101442.25;5025314;28;20052;-39
2023/10/23 04:49:24;;;;;;;3.03;2.42;;;;;;;18.05;58.79;101444.94;5024685;28;20077;-40
2023/10/23 04:51:51;;;;;;;3.28;2.30;;;;;;;18.05;58.81;101442.25;5026190;28;20073;-39
2023/10/23 04:54:18;;;;;;;3.83;1.75;;;;;;;18.04;58.63;101445.91;5017192;28;20054;-39
2023/10/23 04:56:44;;;;;;;3.05;2.22;;;;;;;18.04;58.54;101440.53;5024210;28;20115;-39
2023/10/23 04:59:11;;;;;;;4.07;2.50;;;;;;;18.04;58.98;101443.22;5020967;28;20124;-39
2023/10/23 05:01:38;;;;;;;5.65;2.30;;;;;;;18.05;58.90;101446.75;5021968;28;20132;-39
2023/10/23 05:04:05;;;;;;;2.78;2.03;;;;;;;18.05;59.00;101446.75;5022490;28;20042;-39
2023/10/23 05:06:31;;;;;;;3.25;2.25;;;;;;;18.04;58.39;101451.25;5019572;28;20068;-39
2023/10/23 05:08:58;;;;;;;3.05;2.38;;;;;;;18.03;58.52;101451.41;5019317;28;20559;-39
2023/10/23 05:11:25;;;;;;;2.85;2.38;;;;;;;18.03;58.98;101454.09;5025912;28;20054;-39
2023/10/23 05:13:51;;;;;;;3.95;2.25;;;;;;;18.03;58.40;101459.47;5028842;28;20903;-39
2023/10/23 05:16:18;;;;;;;3.83;2.20;;;;;;;18.02;58.91;101458.63;5028167;28;20050;-39
2023/10/23 05:18:45;;;;;;;3.20;2.10;;;;;;;18.03;58.60;101456.78;5025275;28;20057;-39
2023/10/23 05:21:12;;;;;;;4.15;2.53;;;;;;;18.02;58.75;101450.56;5018741;28;20045;-39
2023/10/23 05:23:40;;;;;;;3.33;2.33;;;;;;;18.02;58.59;101457.78;5023880;28;20064;-40
2023/10/23 05:26:14;;;;;;;3.50;2.45;;;;;;;18.01;58.62;101456.94;5022128;28;20099;-40
2023/10/23 05:28:41;;;;;;;3.20;2.20;;;;;;;18.01;58.79;101454.25;5023071;28;20394;-40
2023/10/23 05:31:09;;;;;;;4.53;2.40;;;;;;;18.01;58.70;101464.97;5026468;28;20345;-40
2023/10/23 05:33:36;;;;;;;3.33;2.40;;;;;;;18.00;58.86;101455.22;5017201;28;20139;-39
2023/10/23 05:36:09;;;;;;;3.17;2.28;;;;;;;18.03;58.62;101449.56;4993411;28;20405;-40
2023/10/23 05:38:37;;;;;;;2.80;2.20;;;;;;;18.09;58.95;101449.03;5017748;28;20053;-40
2023/10/23 05:41:05;;;;;;;2.85;2.30;;;;;;;18.20;58.51;101448.88;5020069;28;20057;-39
2023/10/23 05:43:32;;;;;;;3.67;2.55;;;;;;;18.33;58.27;101454.00;5020656;28;20091;-40
2023/10/23 05:46:04;;;;;;;3.35;2.53;;;;;;;18.47;57.84;101447.34;5022051;28;20129;-40
2023/10/23 05:48:31;;;;;;;4.25;2.28;;;;;;;18.59;57.76;101448.03;5025866;28;20041;-39
2023/10/23 05:51:03;;;;;;;3.38;2.30;;;;;;;18.72;57.68;101456.69;5022864;28;20041;-39
2023/10/23 05:53:31;;;;;;;3.45;2.42;;;;;;;18.84;56.99;101454.69;5019727;28;20053;-40
2023/10/23 05:56:04;;;;;;;2.90;2.15;;;;;;;18.96;57.10;101461.59;5018807;28;20053;-41
2023/10/23 05:58:31;;;;;;;;;;;;;;;19.06;57.36;101454.38;5022160;28;20072;-39
2023/10/23 06:01:05;;;;;;;2.63;2.08;;;;;;;19.17;56.23;101451.47;5024121;28;19921;-40
2023/10/23 06:03:32;;;;;;;2.47;2.03;;;;;;;19.27;56.30;101443.41;5021710;28;20049;-40
2023/10/23 06:05:58;;;;;;;3.83;2.30;;;;;;;19.36;56.20;101438.97;5020597;28;20049;-40
2023/10/23 06:08:25;;;;;;;2.40;2.00;;;;;;;19.43;55.95;101434.72;5021598;28;20132;-40
2023/10/23 06:10:53;;;;;;;2.20;1.88;;;;;;;19.50;56.17;101443.88;5022621;28;20042;-40
2023/10/23 06:13:22;;;;;;;2.92;2.10;;;;;;;19.60;56.13;101446.50;5018923;28;20046;-40
2023/10/23 06:15:50;;;;;;;3.63;2.38;;;;;;;19.66;55.52;101452.19;5022943;28;20609;-40
2023/10/23 06:18:17;;;;;;;2.28;1.88;;;;;;;19.73;55.26;101449.72;5023337;28;20053;-40
2023/10/23 06:20:44;;;;;;;2.63;2.08;;;;;;;19.80;55.69;101449.97;5023462;28;20425;-40
2023/10/23 06:23:10;;;;;;;2.75;1.90;;;;;;;19.85;55.57;101445.81;5021319;28;20315;-40
2023/10/23 06:25:37;;;;;;;3.55;2.28;;;;;;;19.90;55.51;101456.13;5020195;28;20057;-40
2023/10/23 06:28:04;;;;;;;3.40;2.20;;;;;;;19.93;55.10;101453.16;5019962;28;20054;-40
2023/10/23 06:30:30;;;;;;;3.22;2.17;;;;;;;19.96;55.68;101458.22;5022738;28;20057;-40
2023/10/23 06:32:57;;;;;;;2.83;2.05;;;;;;;19.97;54.91;101449.16;5019132;28;20133;-40
2023/10/23 06:35:24;;;;;;;3.88;2.08;;;;;;;19.96;55.18;101442.09;5018133;28;20037;-40
2023/10/23 06:37:50;;;;;;;3.25;2.15;;;;;;;19.93;55.25;101445.91;5021330;28;20042;-40
2023/10/23 06:40:18;;;;;;;2.72;2.08;;;;;;;19.90;55.02;101442.69;5025497;28;20115;-40
2023/10/23 06:42:45;;;;;;;3.58;2.13;;;;;;;19.87;55.23;101453.75;5024458;28;20061;-40
2023/10/23 06:45:11;;;;;;;2.45;1.95;;;;;;;19.83;55.21;101442.47;5020955;28;20507;-40
2023/10/23 06:47:38;;;;;;;2.22;2.00;;;;;;;19.79;55.57;101445.59;5021588;28;20344;-40
2023/10/23 06:50:06;;;;;;;3.42;2.30;;;;;;;19.73;55.71;101449.72;5016261;28;20049;-40
2023/10/23 06:52:33;;;;;;;2.92;2.25;;;;;;;19.69;55.46;101446.47;5030552;28;20448;-40
2023/10/23 06:54:59;;;;;;;2.88;2.40;;;;;;;19.65;56.04;101441.56;5027768;28;20045;-40
2023/10/23 06:57:27;;;;;;;2.90;2.30;;;;;;;19.62;55.87;101444.56;5026070;28;20049;-39
2023/10/23 06:59:54;;;;;;;2.85;1.90;;;;;;;19.59;56.04;101448.34;5023898;28;20472;-40
2023/10/23 07:02:21;;;;;;;2.63;2.20;;;;;;;19.55;56.14;101444.28;5023965;28;20097;-40
2023/10/23 07:04:48;;;;;;;2.33;1.88;;;;;;;19.53;56.25;101450.78;5023521;28;20465;-40
2023/10/23 07:07:15;;;;;;;2.35;1.80;;;;;;;19.49;55.79;101447.53;5024082;28;20081;-40
2023/10/23 07:09:58;;;;;;;3.78;1.90;;;;;;;19.47;55.90;101452.25;5021088;28;20077;-40
2023/10/23 07:12:26;;;;;;;2.72;2.13;;;;;;;19.44;56.48;101456.06;5022191;28;20041;-40
2023/10/23 07:14:53;;;;;;;2.35;2.03;;;;;;;19.43;56.28;101461.59;5022713;28;20041;-40
2023/10/23 07:17:20;;;;;;;3.67;2.88;;;;;;;19.43;56.43;101461.59;5025117;28;20052;-40
2023/10/23 07:19:46;;;;;;;3.17;2.20;;;;;;;19.40;55.98;101462.72;5021014;28;20078;-40
2023/10/23 07:22:13;;;;;;;3.67;2.40;;;;;;;19.38;56.41;101456.66;5019264;28;20073;-40
2023/10/23 07:24:39;;;;;;;3.55;2.65;;;;;;;19.37;55.90;101459.47;5027221;28;20077;-40
2023/10/23 07:27:11;;;;;;;3.40;2.45;;;;;;;19.36;56.00;101463.19;5030046;28;20041;-40
2023/10/23 07:29:38;;;;;;;2.58;2.35;;;;;;;19.34;55.75;101449.88;5023014;28;20065;-40
2023/10/23 07:32:05;;;;;;;3.42;2.13;;;;;;;19.32;55.97;101459.94;5023099;28;20054;-40
2023/10/23 07:34:31;;;;;;;3.65;2.50;;;;;;;19.31;55.95;101458.25;5019059;28;20461;-40
2023/10/23 07:36:58;;;;;;;4.07;2.78;;;;;;;19.31;55.99;101452.03;5020428;28;20049;-39
2023/10/23 07:39:25;;;;;;;4.53;2.35;;;;;;;19.29;56.63;101452.16;5022474;28;20049;-40
2023/10/23 07:41:51;;;;;;;3.53;2.47;;;;;;;19.29;55.96;101454.84;5025621;28;20076;-40
2023/10/23 07:44:20;;;;;;;4.30;2.60;;;;;;;19.27;55.93;101459.53;5022836;28;20131;-40
2023/10/23 07:46:47;;;;;;;3.15;2.53;;;;;;;19.22;56.38;101459.97;5024146;28;20045;-39
2023/10/23 07:49:13;;;;;;;2.60;2.22;;;;;;;19.19;56.41;101456.72;5022895;28;20045;-40
2023/10/23 07:51:40;;;;;;;2.88;2.33;;;;;;;19.14;56.07;101459.84;5025897;28;20049;-40
2023/10/23 07:54:07;;;;;;;2.58;2.03;;;;;;;19.14;56.57;101461.69;5022039;28;20069;-40
2023/10/23 07:56:34;;;;;;;3.03;2.42;;;;;;;19.12;56.73;101463.69;5019099;28;20041;-40
2023/10/23 07:59:00;;;;;;;2.45;2.20;;;;;;;19.09;56.87;101462.13;5030367;28;20091;-40
2023/10/23 08:01:27;;;;;;;3.40;2.50;;;;;;;19.07;56.95;101457.91;5023483;28;20103;-40
2023/10/23 08:03:54;;;;;;;3.45;2.78;;;;;;;19.12;56.55;101459.16;5018663;28;20346;-40
2023/10/23 08:06:20;;;;;;;2.88;2.58;;;;;;;19.20;56.46;101461.09;5020605;28;20042;-40
2023/10/23 08:08:47;;;;;;;3.72;2.80;;;;;;;19.28;56.80;101453.16;5022139;28;20092;-40
2023/10/23 08:11:14;;;;;;;3.58;2.53;;;;;;;19.37;56.18;101446.03;5022260;28;20077;-40
2023/10/23 08:13:40;;;;;;;3.97;2.92;;;;;;;19.47;55.76;101449.56;5020161;28;20373;-40
2023/10/23 08:16:07;;;;;;;8.00;4.20;;;;;;;19.55;56.41;101446.13;5019067;28;20077;-40
2023/10/23 08:18:34;;;;;;;6.30;3.65;;;;;;;19.63;56.05;101448.94;5024689;28;20057;-40
2023/10/23 08:21:14;;;;;;;5.53;3.15;;;;;;;19.70;55.91;101450.03;5022389;28;20068;-40
2023/10/23 08:23:56;;;;;;;4.60;3.30;;;;;;;19.76;55.45;101443.22;5022028;28;20059;-40
2023/10/23 08:26:23;;;;;;;3.88;2.80;;;;;;;19.79;55.39;101438.38;5020969;28;20311;-40
2023/10/23 08:28:50;;;;;;;4.30;2.75;;;;;;;19.80;55.08;101432.00;5016796;28;20136;-40
2023/10/23 08:31:28;;;;;;;4.07;2.88;;;;;;;19.81;55.24;101440.91;5022405;28;20058;-40
2023/10/23 08:34:05;;;;;;;3.38;2.75;;;;;;;19.81;55.25;101440.91;5021149;28;20563;-40
2023/10/23 08:36:32;;;;;;;4.60;3.00;;;;;;;19.78;55.02;101428.63;5022414;28;20049;-40
2023/10/23 08:39:00;;;;;;;3.33;2.67;;;;;;;19.76;55.82;101424.38;5017678;28;20161;-40
2023/10/23 08:41:27;;;;;;;4.30;2.97;;;;;;;19.72;55.90;101430.06;5022727;28;20056;-40
2023/10/23 08:43:55;;;;;;;3.53;3.08;;;;;;;19.68;55.80;101420.59;5022752;28;20042;-40
2023/10/23 08:46:31;;;;;;;4.07;2.60;;;;;;;19.63;56.04;101420.22;5020229;28;20461;-40
2023/10/23 08:48:59;;;;;;;4.53;2.78;;;;;;;19.62;55.90;101429.28;5021479;28;20049;-40
2023/10/23 08:51:26;;;;;;;4.25;3.03;;;;;;;19.59;55.93;101429.53;5023548;28;20045;-40
2023/10/23 08:54:04;;;;;;;4.15;2.75;;;;;;;19.57;55.46;101438.72;5026651;28;20049;-40
2023/10/23 08:56:38;;;;;;;2.97;2.33;;;;;;;19.55;55.59;101432.69;5021568;28;20331;-40
2023/10/23 08:59:08;;;;;;;4.43;2.63;;;;;;;19.53;56.19;101438.19;5025282;28;20112;-40
2023/10/23 09:01:34;;;;;;;3.65;2.40;;;;;;;19.52;55.76;101438.34;5024662;28;20045;-40
2023/10/23 09:04:04;;;;;;;3.92;2.50;;;;;;;19.50;56.50;101427.75;5022409;28;20120;-40
2023/10/23 09:06:35;;;;;;;3.70;2.63;;;;;;;19.48;56.25;101435.09;5026817;28;20357;-40
2023/10/23 09:09:06;;;;;;;3.95;2.83;;;;;;;19.46;56.12;101429.03;5022573;28;20446;-40
2023/10/23 09:11:51;;;;;;;3.70;2.78;;;;;;;19.43;56.48;101430.19;5023101;28;20149;-39
2023/10/23 09:14:30;;;;;;;3.85;2.90;;;;;;;19.43;56.34;101424.81;5019061;28;20081;-40
2023/10/23 09:16:59;;;;;;;3.85;3.03;;;;;;;19.44;55.96;101431.88;5020418;28;20070;-40
2023/10/23 09:19:32;;;;;;;5.15;3.22;;;;;;;19.41;56.14;101437.53;5018286;28;20426;-40
2023/10/23 09:21:59;;;;;;;6.28;3.25;;;;;;;19.41;56.25;101436.69;5021570;28;20065;-39
2023/10/23 09:24:26;;;;;;;3.92;3.00;;;;;;;19.40;56.19;101441.22;5021055;28;20056;-39
2023/10/23 09:26:53;;;;;;;4.03;3.00;;;;;;;19.37;56.10;101444.19;5023926;28;20076;-39
2023/10/23 09:29:27;;;;;;;4.72;3.22;;;;;;;19.34;56.60;101451.75;5027198;28;20045;-39
2023/10/23 09:31:55;;;;;;;6.25;3.33;;;;;;;19.35;56.87;101448.03;5023827;28;20099;-39
2023/10/23 09:34:22;;;;;;;6.82;3.83;;;;;;;19.39;56.69;101447.59;5020409;28;20042;-39
2023/10/23 09:36:50;;;;;;;4.95;3.55;;;;;;;19.47;56.09;101450.41;5025999;28;20045;-40
2023/10/23 09:39:24;;;;;;;6.30;3.67;;;;;;;19.54;56.41;101450.66;5024924;28;20080;-39
2023/10/23 09:41:52;;;;;;;5.40;3.75;;;;;;;19.62;56.30;101448.09;5025977;28;20081;-40
2023/10/23 09:44:19;;;;;;;6.45;3.95;;;;;;;19.70;55.79;101437.44;5019923;28;20054;-39
2023/10/23 09:46:47;;;;;;;6.00;4.38;;;;;;;19.78;55.59;101434.00;5022358;28;20058;-40
2023/10/23 09:49:16;;;;;;;9.10;4.13;;;;;;;19.84;56.05;101438.75;5023197;28;20406;-40
2023/10/23 09:51:48;;;;;;;5.85;3.65;;;;;;;19.89;55.85;101443.69;5018700;28;20334;-40
2023/10/23 09:54:17;;;;;;;6.60;3.83;;;;;;;19.92;55.19;101436.16;5019788;28;20056;-40
2023/10/23 09:56:48;;;;;;;5.43;4.25;;;;;;;19.94;55.68;101444.09;5019689;28;20054;-40
2023/10/23 09:59:17;;;;;;;4.88;3.85;;;;;;;19.94;55.13;101438.72;5028265;28;20060;-40
2023/10/23 10:01:48;;;;;;;7.15;4.20;;;;;;;19.94;55.77;101436.88;5020132;28;20056;-40
2023/10/23 10:04:33;;;;;;;5.47;3.85;;;;;;;19.91;55.59;101442.53;5027891;28;20057;-39
2023/10/23 10:07:21;;;;;;;5.40;3.97;;;;;;;19.90;55.15;101435.47;5030223;28;20056;-40
2023/10/23 10:09:49;;;;;;;5.05;4.00;;;;;;;19.87;55.19;101432.25;5026698;28;20061;-40
2023/10/23 10:12:18;;;;;;;6.82;3.72;;;;;;;19.84;55.23;101440.59;5029066;28;20059;-40
2023/10/23 10:14:47;;;;;;;7.47;4.22;;;;;;;19.81;55.24;101433.69;5026275;28;20049;-39
2023/10/23 10:17:17;;;;;;;6.50;4.43;;;;;;;19.80;55.28;101428.47;5024995;28;20129;-40
2023/10/23 10:19:45;;;;;;;7.28;4.63;;;;;;;19.77;55.10;101440.34;5023581;28;20132;-40
2023/10/23 10:22:22;;;;;;;4.47;3.58;;;;;;;19.72;55.29;101435.44;5023827;28;20491;-40
2023/10/23 10:24:50;;;;;;;9.50;4.45;;;;;;;19.72;55.12;101434.59;5022775;28;20108;-39
2023/10/23 10:27:17;;;;;;;4.75;3.83;;;;;;;19.69;55.51;101430.34;5024044;28;20049;-39
2023/10/23 10:29:43;;;;;;;4.82;3.45;;;;;;;19.67;55.39;101423.44;5027767;28;20140;-39
2023/10/23 10:32:10;;;;;;;6.78;3.83;;;;;;;19.67;55.67;101421.59;5030363;28;20056;-39
2023/10/23 10:34:45;;;;;;;6.75;4.25;;;;;;;19.66;55.99;101425.28;5022188;28;20334;-39
2023/10/23 10:37:13;;;;;;;5.72;3.80;;;;;;;19.65;55.66;101414.66;5027596;28;20045;-40
2023/10/23 10:39:54;;;;;;;5.70;3.75;;;;;;;19.63;56.02;101414.81;5022901;28;20637;-40
2023/10/23 10:42:26;;;;;;;7.00;4.13;;;;;;;19.64;55.92;101421.88;5026672;28;20063;-40
2023/10/23 10:45:15;;;;;;;6.60;4.55;;;;;;;19.63;55.87;101413.97;5026515;28;20137;-39
2023/10/23 10:47:45;;;;;;;7.53;4.55;;;;;;;19.63;55.55;101411.28;5024040;28;20053;-40
2023/10/23 10:50:12;;;;;;;5.88;4.13;;;;;;;19.62;55.67;101413.16;5023942;28;20460;-39
2023/10/23 10:52:43;;;;;;;4.63;3.78;;;;;;;19.61;56.14;101400.66;5023514;28;20068;-39
2023/10/23 10:55:12;;;;;;;6.50;4.45;;;;;;;19.63;56.06;101397.84;5025872;28;20369;-39
2023/10/23 10:57:44;;;;;;;6.05;4.25;;;;;;;19.61;56.17;101397.97;5024582;28;20128;-39
2023/10/23 11:00:12;;;;;;;6.32;4.40;;;;;;;19.62;55.72;101397.00;5022752;28;20046;-39
2023/10/23 11:02:39;;;;;;;7.72;4.32;;;;;;;19.63;55.94;101396.00;5025374;28;20054;-40
2023/10/23 11:05:09;;;;;;;6.30;4.57;;;;;;;19.63;56.11;101387.94;5030026;28;20049;-40
2023/10/23 11:07:35;;;;;;;7.95;4.72;;;;;;;19.65;56.26;101380.53;5029610;28;20385;-39
2023/10/23 11:10:02;;;;;;;6.68;4.68;;;;;;;19.65;56.05;101372.47;5020895;28;20413;-40
2023/10/23 11:12:29;;;;;;;5.63;3.80;;;;;;;19.67;56.27;101369.66;5021997;28;20049;-40
2023/10/23 11:14:56;;;;;;;9.23;4.18;;;;;;;19.68;55.48;101364.13;5020870;28;20058;-40
2023/10/23 11:17:23;;;;;;;5.72;3.97;;;;;;;19.67;55.70;101351.66;5024421;28;20159;-40
2023/10/23 11:19:50;;;;;;;7.20;4.30;;;;;;;19.69;55.84;101356.88;5022177;28;20468;-40
2023/10/23 11:22:21;;;;;;;8.23;4.22;;;;;;;19.68;55.85;101353.34;5021024;28;20556;-40
2023/10/23 11:24:48;;;;;;;5.72;3.97;;;;;;;19.70;55.93;101354.06;5021221;28;20053;-39
2023/10/23 11:27:15;;;;;;;5.93;4.22;;;;;;;19.70;55.59;101346.00;5024781;28;20285;-40